createdAt,value
2016-10-14T00:01:04.621Z,0
2016-10-14T00:02:14.293Z,0
2016-10-14T00:03:24.365Z,0
2016-10-14T00:04:34.663Z,0
2016-10-14T00:05:44.679Z,0
2016-10-14T00:06:54.656Z,0
2016-10-14T00:08:04.026Z,0
2016-10-14T00:09:14.010Z,0
2016-10-14T00:10:24.288Z,0
2016-10-14T00:11:34.267Z,0
2016-10-14T00:12:44.555Z,0
2016-10-14T00:13:54.534Z,0
2016-10-14T00:15:04.831Z,0
2016-10-14T00:16:14.518Z,0
2016-10-14T00:17:24.804Z,0
2016-10-14T00:18:35.096Z,0
2016-10-14T00:19:45.369Z,0
2016-10-14T00:20:55.685Z,0
2016-10-14T00:22:05.986Z,0
2016-10-14T00:23:16.253Z,0
2016-10-14T00:24:26.235Z,0
2016-10-14T00:25:35.908Z,0
2016-10-14T00:26:46.228Z,0
2016-10-14T00:27:56.530Z,0
2016-10-14T00:29:06.196Z,0
2016-10-14T00:30:16.183Z,0
2016-10-14T00:31:26.166Z,0
2016-10-14T00:32:36.148Z,0
2016-10-14T00:33:46.435Z,0
2016-10-14T00:34:56.426Z,0
2016-10-14T00:36:06.698Z,0
2016-10-14T00:37:16.688Z,0
2016-10-14T00:38:26.356Z,0
2016-10-14T00:39:36.648Z,0
2016-10-14T00:40:46.648Z,0
2016-10-14T00:41:56.943Z,0
2016-10-14T00:43:06.908Z,0
2016-10-14T00:44:16.892Z,0
2016-10-14T00:45:27.182Z,0
2016-10-14T00:46:37.162Z,0
2016-10-14T00:47:47.448Z,0
2016-10-14T00:48:57.417Z,0
2016-10-14T00:50:07.406Z,0
2016-10-14T00:51:17.393Z,0
2016-10-14T00:52:27.690Z,0
2016-10-14T00:53:37.988Z,0
2016-10-14T00:54:47.663Z,0
2016-10-14T00:55:57.948Z,0
2016-10-14T00:57:08.231Z,0
2016-10-14T00:58:18.522Z,0
2016-10-14T00:59:28.483Z,0
2016-10-14T01:00:37.532Z,0
2016-10-14T01:01:47.508Z,0
2016-10-14T01:02:57.794Z,0
2016-10-14T01:04:08.067Z,0
2016-10-14T01:05:18.348Z,0
2016-10-14T01:06:28.645Z,0
2016-10-14T01:07:38.925Z,0
2016-10-14T01:08:49.203Z,0
2016-10-14T01:09:59.186Z,0
2016-10-14T01:11:09.197Z,0
2016-10-14T01:12:19.497Z,0
2016-10-14T01:13:29.774Z,0
2016-10-14T01:14:39.751Z,0
2016-10-14T01:15:49.749Z,0
2016-10-14T01:16:59.719Z,0
2016-10-14T01:18:09.992Z,0
2016-10-14T01:19:19.978Z,0
2016-10-14T01:20:29.954Z,0
2016-10-14T01:21:40.241Z,0
2016-10-14T01:22:50.223Z,0
2016-10-14T01:24:00.508Z,0
2016-10-14T01:25:10.511Z,0
2016-10-14T01:26:20.480Z,0
2016-10-14T01:27:30.461Z,0
2016-10-14T01:28:39.816Z,0
2016-10-14T01:29:49.832Z,0
2016-10-14T01:31:00.119Z,0
2016-10-14T01:32:10.125Z,0
2016-10-14T01:33:20.402Z,0
2016-10-14T01:34:30.691Z,0
2016-10-14T01:35:40.972Z,0
2016-10-14T01:36:50.654Z,0
2016-10-14T01:38:00.949Z,0
2016-10-14T01:39:10.948Z,0
2016-10-14T01:40:21.247Z,0
2016-10-14T01:41:31.224Z,0
2016-10-14T01:42:40.885Z,0
2016-10-14T01:43:50.854Z,0
2016-10-14T01:45:01.136Z,0
2016-10-14T01:46:11.422Z,0
2016-10-14T01:47:21.717Z,0
2016-10-14T01:48:31.730Z,0
2016-10-14T01:49:42.009Z,0
2016-10-14T01:50:52.002Z,0
2016-10-14T01:52:02.300Z,0
2016-10-14T01:53:12.320Z,0
2016-10-14T01:54:22.283Z,0
2016-10-14T01:55:31.653Z,0
2016-10-14T01:56:41.632Z,0
2016-10-14T01:57:51.940Z,0
2016-10-14T01:59:01.628Z,0
2016-10-14T02:00:11.290Z,0
2016-10-14T02:01:21.274Z,0
2016-10-14T02:02:31.583Z,0
2016-10-14T02:03:41.884Z,0
2016-10-14T02:04:52.207Z,0
2016-10-14T02:06:02.488Z,0
2016-10-14T02:07:12.473Z,0
2016-10-14T02:08:22.741Z,0
2016-10-14T02:09:32.728Z,0
2016-10-14T02:10:42.719Z,0
2016-10-14T02:11:52.697Z,0
2016-10-14T02:13:02.981Z,0
2016-10-14T02:14:12.960Z,0
2016-10-14T02:15:23.247Z,0
2016-10-14T02:16:33.538Z,0
2016-10-14T02:17:43.563Z,0
2016-10-14T02:18:53.858Z,0
2016-10-14T02:20:04.153Z,0
2016-10-14T02:21:14.446Z,0
2016-10-14T02:22:24.727Z,0
2016-10-14T02:23:35.033Z,0
2016-10-14T02:24:45.314Z,0
2016-10-14T02:25:55.606Z,0
2016-10-14T02:27:05.893Z,0
2016-10-14T02:28:15.874Z,0
2016-10-14T02:29:25.564Z,0
2016-10-14T02:30:35.837Z,0
2016-10-14T02:31:45.510Z,0
2016-10-14T02:32:55.182Z,0
2016-10-14T02:34:05.157Z,0
2016-10-14T02:35:15.449Z,0
2016-10-14T02:36:25.421Z,0
2016-10-14T02:37:34.773Z,0
2016-10-14T02:38:45.050Z,0
2016-10-14T02:39:55.007Z,0
2016-10-14T02:41:04.719Z,0
2016-10-14T02:42:14.099Z,0
2016-10-14T02:43:24.082Z,0
2016-10-14T02:44:34.063Z,0
2016-10-14T02:45:44.356Z,0
2016-10-14T02:46:54.322Z,0
2016-10-14T02:48:04.288Z,0
2016-10-14T02:49:14.572Z,0
2016-10-14T02:50:24.570Z,0
2016-10-14T02:51:34.850Z,0
2016-10-14T02:52:45.136Z,0
2016-10-14T02:53:54.825Z,0
2016-10-14T02:55:04.796Z,0
2016-10-14T02:56:14.468Z,0
2016-10-14T02:57:24.433Z,0
2016-10-14T02:58:34.716Z,0
2016-10-14T02:59:44.993Z,0
2016-10-14T03:00:54.981Z,0
2016-10-14T03:32:44.776Z,0
2016-10-14T03:33:54.757Z,0
2016-10-14T03:35:05.043Z,0
2016-10-14T03:36:15.321Z,0
2016-10-14T03:37:25.606Z,0
2016-10-14T03:38:35.900Z,0
2016-10-14T03:39:46.177Z,0
2016-10-14T03:40:55.532Z,0
2016-10-14T03:42:05.204Z,0
2016-10-14T03:43:15.186Z,0
2016-10-14T03:44:25.473Z,0
2016-10-14T03:45:35.468Z,0
2016-10-14T03:46:45.446Z,0
2016-10-14T03:47:55.732Z,0
2016-10-14T03:49:05.714Z,0
2016-10-14T03:50:15.991Z,0
2016-10-14T03:51:25.960Z,0
2016-10-14T03:52:35.634Z,0
2016-10-14T03:53:45.606Z,0
2016-10-14T03:54:55.573Z,0
2016-10-14T03:56:05.544Z,0
2016-10-14T03:57:15.831Z,0
2016-10-14T03:58:25.803Z,0
2016-10-14T03:59:35.779Z,0
2016-10-14T04:00:45.745Z,0
2016-10-14T04:01:55.718Z,0
2016-10-14T04:03:05.690Z,0
2016-10-14T04:04:15.984Z,0
2016-10-14T04:05:26.276Z,0
2016-10-14T04:06:36.569Z,0
2016-10-14T04:07:46.551Z,0
2016-10-14T04:08:56.842Z,0
2016-10-14T04:10:07.133Z,0
2016-10-14T04:11:17.419Z,0
2016-10-14T04:12:27.689Z,0
2016-10-14T04:13:37.999Z,0
2016-10-14T04:14:47.972Z,0
2016-10-14T04:15:58.258Z,0
2016-10-14T04:17:08.564Z,0
2016-10-14T04:18:18.841Z,0
2016-10-14T04:19:29.133Z,0
2016-10-14T04:20:39.112Z,0
2016-10-14T04:21:49.390Z,0
2016-10-14T04:22:59.055Z,0
2016-10-14T04:24:09.037Z,0
2016-10-14T04:25:19.330Z,0
2016-10-14T04:26:29.312Z,0
2016-10-14T04:27:38.994Z,0
2016-10-14T04:28:49.286Z,0
2016-10-14T04:29:59.590Z,0
2016-10-14T04:31:09.574Z,0
2016-10-14T04:32:19.555Z,0
2016-10-14T04:33:29.536Z,0
2016-10-14T04:34:39.518Z,0
2016-10-14T04:35:49.795Z,0
2016-10-14T04:36:59.471Z,0
2016-10-14T04:38:09.437Z,0
2016-10-14T04:39:19.725Z,0
2016-10-14T04:40:30.035Z,0
2016-10-14T04:41:40.304Z,0
2016-10-14T04:42:50.279Z,0
2016-10-14T04:44:00.576Z,4
2016-10-14T04:45:10.547Z,4
2016-10-14T04:46:20.835Z,4
2016-10-14T04:47:31.131Z,4
2016-10-14T04:48:41.103Z,0
2016-10-14T04:49:51.389Z,0
2016-10-14T04:51:01.667Z,4
2016-10-14T04:52:11.972Z,4
2016-10-14T04:53:22.264Z,4
2016-10-14T04:54:32.557Z,4
2016-10-14T04:55:42.553Z,4
2016-10-14T04:56:52.847Z,8
2016-10-14T04:58:02.825Z,12
2016-10-14T04:59:13.110Z,12
2016-10-14T05:00:22.768Z,16
2016-10-14T05:01:32.756Z,20
2016-10-14T05:02:42.434Z,20
2016-10-14T05:03:52.420Z,24
2016-10-14T05:05:02.691Z,28
2016-10-14T05:06:12.983Z,36
2016-10-14T05:07:22.966Z,36
2016-10-14T05:08:32.942Z,40
2016-10-14T05:09:42.915Z,52
2016-10-14T05:10:52.893Z,56
2016-10-14T05:12:02.882Z,68
2016-10-14T05:13:13.396Z,76
2016-10-14T05:14:23.682Z,72
2016-10-14T05:15:33.968Z,76
2016-10-14T05:16:44.255Z,108
2016-10-14T05:17:54.545Z,128
2016-10-14T05:19:04.847Z,140
2016-10-14T05:20:14.820Z,156
2016-10-14T05:21:24.796Z,176
2016-10-14T05:22:35.069Z,196
2016-10-14T05:23:45.141Z,212
2016-10-14T05:24:55.445Z,220
2016-10-14T05:26:05.754Z,252
2016-10-14T05:27:15.755Z,288
2016-10-14T05:28:26.041Z,304
2016-10-14T05:29:36.018Z,340
2016-10-14T05:30:46.300Z,372
2016-10-14T05:31:56.579Z,416
2016-10-14T05:33:06.878Z,452
2016-10-14T05:34:17.161Z,496
2016-10-14T05:35:27.458Z,532
2016-10-14T05:36:37.748Z,572
2016-10-14T05:37:47.756Z,612
2016-10-14T05:38:57.724Z,648
2016-10-14T05:40:08.010Z,692
2016-10-14T05:41:17.994Z,732
2016-10-14T05:42:27.974Z,772
2016-10-14T05:43:37.949Z,816
2016-10-14T05:44:47.923Z,856
2016-10-14T05:45:58.227Z,900
2016-10-14T05:47:08.511Z,940
2016-10-14T05:48:18.784Z,976
2016-10-14T05:49:29.064Z,1020
2016-10-14T05:50:39.046Z,1080
2016-10-14T05:51:49.317Z,1136
2016-10-14T05:52:59.608Z,1212
2016-10-14T05:54:08.976Z,1292
2016-10-14T05:55:19.268Z,1364
2016-10-14T05:56:29.555Z,1448
2016-10-14T05:57:39.235Z,1512
2016-10-14T05:58:49.523Z,1608
2016-10-14T05:59:59.797Z,1656
2016-10-14T06:01:10.076Z,1732
2016-10-14T06:02:20.363Z,1824
2016-10-14T06:03:30.338Z,1948
2016-10-14T06:04:40.328Z,1968
2016-10-14T06:05:50.625Z,2040
2016-10-14T06:07:00.945Z,2060
2016-10-14T06:08:11.237Z,2200
2016-10-14T06:09:21.524Z,2192
2016-10-14T06:10:31.541Z,2208
2016-10-14T06:11:41.832Z,2380
2016-10-14T06:12:52.110Z,2440
2016-10-14T06:14:02.088Z,2600
2016-10-14T06:15:12.092Z,2644
2016-10-14T06:16:22.370Z,2532
2016-10-14T06:17:32.352Z,2752
2016-10-14T06:18:42.047Z,2852
2016-10-14T06:19:52.335Z,2656
2016-10-14T06:21:02.613Z,2540
2016-10-14T06:22:12.899Z,2772
2016-10-14T06:23:22.876Z,2564
2016-10-14T06:24:33.172Z,3140
2016-10-14T06:25:43.451Z,2648
2016-10-14T06:26:53.762Z,2304
2016-10-14T06:28:04.062Z,2104
2016-10-14T06:29:14.375Z,2312
2016-10-14T06:30:24.048Z,2564
2016-10-14T06:31:34.323Z,3132
2016-10-14T06:32:43.991Z,2832
2016-10-14T06:33:54.299Z,2756
2016-10-14T06:35:04.604Z,2464
2016-10-14T06:36:14.574Z,2196
2016-10-14T06:37:24.552Z,2960
2016-10-14T06:38:34.839Z,2716
2016-10-14T06:39:45.125Z,3232
2016-10-14T06:40:55.428Z,3108
2016-10-14T06:42:05.716Z,4096
2016-10-14T06:43:15.686Z,3484
2016-10-14T06:44:25.982Z,3112
2016-10-14T06:45:35.969Z,2876
2016-10-14T06:46:46.281Z,2908
2016-10-14T06:47:55.971Z,3892
2016-10-14T06:49:05.964Z,3864
2016-10-14T06:50:15.946Z,3592
2016-10-14T06:51:26.242Z,3752
2016-10-14T06:52:36.229Z,3764
2016-10-14T06:53:46.226Z,3880
2016-10-14T06:54:56.518Z,3840
2016-10-14T06:56:06.506Z,3784
2016-10-14T06:57:16.481Z,4680
2016-10-14T06:58:26.773Z,4092
2016-10-14T06:59:37.085Z,4532
2016-10-14T07:00:47.077Z,3796
2016-10-14T07:01:57.377Z,3872
2016-10-14T07:03:07.666Z,4272
2016-10-14T07:04:17.967Z,3740
2016-10-14T07:05:27.934Z,3552
2016-10-14T07:06:38.225Z,4304
2016-10-14T07:07:48.523Z,4308
2016-10-14T07:08:58.856Z,4544
2016-10-14T07:10:09.395Z,4220
2016-10-14T07:11:19.383Z,5472
2016-10-14T07:12:29.675Z,4588
2016-10-14T07:13:40.007Z,4436
2016-10-14T07:14:49.994Z,4200
2016-10-14T07:16:00.302Z,4420
2016-10-14T07:17:13.151Z,4900
2016-10-14T07:18:26.496Z,4516
2016-10-14T07:19:38.266Z,4816
2016-10-14T07:20:48.570Z,4824
2016-10-14T07:21:58.546Z,4576
2016-10-14T07:23:08.544Z,4836
2016-10-14T07:24:18.515Z,4848
2016-10-14T07:25:28.824Z,5200
2016-10-14T07:26:38.835Z,4652
2016-10-14T07:27:49.134Z,4816
2016-10-14T07:28:59.095Z,5248
2016-10-14T07:30:09.406Z,4992
2016-10-14T07:31:19.722Z,4976
2016-10-14T07:32:30.023Z,4988
2016-10-14T07:33:40.076Z,5156
2016-10-14T07:34:50.093Z,4928
2016-10-14T07:36:00.387Z,5756
2016-10-14T07:37:10.715Z,4824
2016-10-14T07:38:21.030Z,5920
2016-10-14T07:39:31.095Z,5960
2016-10-14T07:40:41.432Z,4632
2016-10-14T07:41:51.747Z,4260
2016-10-14T07:43:01.777Z,5300
2016-10-14T07:44:12.575Z,4756
2016-10-14T07:45:22.893Z,5776
2016-10-14T07:46:32.894Z,5256
2016-10-14T07:47:43.202Z,4740
2016-10-14T07:48:53.516Z,4336
2016-10-14T07:50:03.821Z,4668
2016-10-14T07:51:14.116Z,6448
2016-10-14T07:52:24.117Z,5712
2016-10-14T07:53:33.813Z,5396
2016-10-14T07:54:44.132Z,6320
2016-10-14T07:55:54.436Z,6056
2016-10-14T07:57:04.735Z,7304
2016-10-14T07:58:15.042Z,5624
2016-10-14T07:59:25.377Z,7128
2016-10-14T08:00:35.715Z,7516
2016-10-14T08:01:46.055Z,6400
2016-10-14T08:02:56.057Z,5384
2016-10-14T08:04:06.375Z,5424
2016-10-14T08:05:16.690Z,6556
2016-10-14T08:06:27.021Z,6308
2016-10-14T08:07:37.324Z,6312
2016-10-14T08:08:47.347Z,5256
2016-10-14T08:09:57.684Z,5520
2016-10-14T08:11:08.002Z,7144
2016-10-14T08:12:18.312Z,6288
2016-10-14T08:13:28.308Z,4328
2016-10-14T08:14:38.303Z,5088
2016-10-14T08:15:48.592Z,4760
2016-10-14T08:16:58.887Z,5996
2016-10-14T08:18:08.560Z,7732
2016-10-14T08:19:18.856Z,7800
2016-10-14T08:20:29.179Z,6012
2016-10-14T08:21:39.172Z,8144
2016-10-14T08:22:49.172Z,8404
2016-10-14T08:23:59.480Z,7664
2016-10-14T08:25:09.794Z,7972
2016-10-14T08:26:20.097Z,5392
2016-10-14T08:27:30.424Z,7984
2016-10-14T08:28:40.712Z,7208
2016-10-14T08:29:51.008Z,7732
2016-10-14T08:31:01.321Z,7732
2016-10-14T08:32:11.613Z,7580
2016-10-14T08:33:21.916Z,5520
2016-10-14T08:34:32.225Z,8404
2016-10-14T08:35:42.533Z,5540
2016-10-14T08:36:52.887Z,7768
2016-10-14T08:38:02.895Z,6036
2016-10-14T08:39:13.204Z,8208
2016-10-14T08:40:23.498Z,7572
2016-10-14T08:41:33.496Z,8188
2016-10-14T08:42:43.481Z,7772
2016-10-14T08:43:53.767Z,7620
2016-10-14T08:45:03.753Z,8000
2016-10-14T08:46:13.747Z,8024
2016-10-14T08:47:24.046Z,7696
2016-10-14T08:48:34.602Z,7928
2016-10-14T08:49:44.578Z,7968
2016-10-14T08:50:54.887Z,7968
2016-10-14T08:52:05.199Z,8128
2016-10-14T08:53:15.215Z,7152
2016-10-14T08:54:25.507Z,8060
2016-10-14T08:55:35.821Z,8248
2016-10-14T08:56:46.123Z,8092
2016-10-14T08:57:56.423Z,8024
2016-10-14T08:59:06.405Z,7972
2016-10-14T09:00:16.715Z,8156
2016-10-14T09:01:26.705Z,8312
2016-10-14T09:02:37.029Z,5512
2016-10-14T09:03:47.023Z,8448
2016-10-14T09:04:57.324Z,8900
2016-10-14T09:06:07.620Z,8464
2016-10-14T09:07:17.937Z,8148
2016-10-14T09:08:28.265Z,8308
2016-10-14T09:09:38.578Z,8064
2016-10-14T09:10:48.571Z,8344
2016-10-14T09:11:58.883Z,8340
2016-10-14T09:13:08.886Z,8168
2016-10-14T09:14:19.175Z,7836
2016-10-14T09:15:29.408Z,7920
2016-10-14T09:16:39.694Z,7492
2016-10-14T09:17:49.355Z,7680
2016-10-14T09:18:59.664Z,7636
2016-10-14T09:20:09.659Z,6940
2016-10-14T09:21:19.641Z,6908
2016-10-14T09:22:29.932Z,7324
2016-10-14T09:23:40.211Z,7476
2016-10-14T09:24:50.515Z,7492
2016-10-14T09:26:00.829Z,6248
2016-10-14T09:27:10.808Z,7712
2016-10-14T09:28:21.120Z,6996
2016-10-14T09:29:31.407Z,5488
2016-10-14T09:30:41.698Z,7836
2016-10-14T09:31:52.029Z,8468
2016-10-14T09:33:02.323Z,8524
2016-10-14T09:34:12.318Z,7872
2016-10-14T09:35:22.300Z,7152
2016-10-14T09:36:32.312Z,6736
2016-10-14T09:37:42.856Z,6768
2016-10-14T09:38:53.168Z,6628
2016-10-14T09:40:03.473Z,5948
2016-10-14T09:41:13.783Z,6156
2016-10-14T09:42:24.073Z,8104
2016-10-14T09:43:34.380Z,8756
2016-10-14T09:44:44.381Z,9836
2016-10-14T09:45:54.679Z,9948
2016-10-14T09:47:04.685Z,7704
2016-10-14T09:48:14.989Z,8720
2016-10-14T09:49:25.311Z,9076
2016-10-14T09:50:35.630Z,8308
2016-10-14T09:51:45.938Z,7488
2016-10-14T09:52:55.932Z,7704
2016-10-14T09:54:05.918Z,8416
2016-10-14T09:55:16.251Z,8036
2016-10-14T09:56:26.234Z,7820
2016-10-14T09:57:36.536Z,7132
2016-10-14T09:58:46.511Z,7072
2016-10-14T09:59:56.821Z,7124
2016-10-14T10:01:07.119Z,7216
2016-10-14T10:02:17.403Z,7536
2016-10-14T10:03:27.392Z,7516
2016-10-14T10:04:37.706Z,7488
2016-10-14T10:05:47.697Z,7620
2016-10-14T10:06:58.005Z,7716
2016-10-14T10:08:08.311Z,7820
2016-10-14T10:09:18.648Z,8272
2016-10-14T10:10:28.946Z,8952
2016-10-14T10:11:39.250Z,9044
2016-10-14T10:12:49.241Z,8868
2016-10-14T10:13:59.538Z,8716
2016-10-14T10:15:09.848Z,8724
2016-10-14T10:16:20.182Z,9644
2016-10-14T10:17:30.478Z,10020
2016-10-14T10:18:40.782Z,10184
2016-10-14T10:19:50.770Z,10144
2016-10-14T10:21:01.077Z,10268
2016-10-14T10:22:11.094Z,10484
2016-10-14T10:23:21.414Z,10784
2016-10-14T10:24:31.707Z,10052
2016-10-14T10:25:42.021Z,9592
2016-10-14T10:26:52.305Z,8864
2016-10-14T10:28:02.287Z,9696
2016-10-14T10:29:12.620Z,9432
2016-10-14T10:30:22.930Z,10048
2016-10-14T10:31:33.251Z,10000
2016-10-14T10:32:43.245Z,10008
2016-10-14T10:33:53.249Z,10100
2016-10-14T10:35:03.265Z,10296
2016-10-14T10:36:13.594Z,10400
2016-10-14T10:37:23.920Z,9988
2016-10-14T10:38:33.927Z,9240
2016-10-14T10:39:43.924Z,8496
2016-10-14T10:40:54.267Z,8224
2016-10-14T10:42:04.351Z,8412
2016-10-14T10:43:14.715Z,8732
2016-10-14T10:44:25.093Z,8440
2016-10-14T10:45:35.164Z,8420
2016-10-14T10:46:45.503Z,8372
2016-10-14T10:47:55.829Z,7880
2016-10-14T10:49:05.940Z,7436
2016-10-14T10:50:16.305Z,7276
2016-10-14T10:51:26.327Z,7608
2016-10-14T10:52:36.716Z,7384
2016-10-14T10:53:47.053Z,6924
2016-10-14T10:54:57.392Z,6624
2016-10-14T10:56:07.725Z,6512
2016-10-14T10:57:18.068Z,6272
2016-10-14T10:58:28.419Z,6200
2016-10-14T10:59:38.456Z,6292
2016-10-14T11:00:48.804Z,6380
2016-10-14T11:01:59.187Z,6476
2016-10-14T11:03:09.202Z,6492
2016-10-14T11:04:19.509Z,6344
2016-10-14T11:05:29.804Z,6076
2016-10-14T11:06:39.858Z,5956
2016-10-14T11:07:49.543Z,5996
2016-10-14T11:08:59.838Z,5932
2016-10-14T11:10:10.137Z,5960
2016-10-14T11:11:20.124Z,5808
2016-10-14T11:12:30.124Z,5728
2016-10-14T11:13:40.434Z,5652
2016-10-14T11:14:50.718Z,5656
2016-10-14T11:16:01.051Z,5680
2016-10-14T11:17:11.374Z,5664
2016-10-14T11:18:21.683Z,5676
2016-10-14T11:19:31.985Z,5672
2016-10-14T11:20:42.283Z,5668
2016-10-14T11:21:52.272Z,5668
2016-10-14T11:23:02.569Z,5684
2016-10-14T11:24:12.860Z,5720
2016-10-14T11:25:23.180Z,5764
2016-10-14T11:26:33.484Z,5848
2016-10-14T11:27:43.783Z,5920
2016-10-14T11:28:54.085Z,5996
2016-10-14T11:30:04.088Z,6096
2016-10-14T11:31:14.398Z,6176
2016-10-14T11:32:24.711Z,6264
2016-10-14T11:33:35.030Z,6332
2016-10-14T11:34:45.367Z,6368
2016-10-14T11:35:55.679Z,6436
2016-10-14T11:37:05.359Z,6504
2016-10-14T11:38:15.367Z,6572
2016-10-14T11:39:25.663Z,6672
2016-10-14T11:40:35.975Z,6844
2016-10-14T11:41:46.208Z,7432
2016-10-14T11:42:56.222Z,9628
2016-10-14T11:44:06.210Z,9924
2016-10-14T11:45:16.525Z,10916
2016-10-14T11:46:26.810Z,11452
2016-10-14T11:47:36.800Z,10844
2016-10-14T11:48:47.111Z,11636
2016-10-14T11:49:57.418Z,11672
2016-10-14T11:51:07.404Z,11152
2016-10-14T11:52:17.725Z,10196
2016-10-14T11:53:28.010Z,11820
2016-10-14T11:54:38.004Z,11636
2016-10-14T11:55:47.370Z,10384
2016-10-14T11:56:57.692Z,10512
2016-10-14T11:58:08.014Z,10392
2016-10-14T11:59:18.311Z,11452
2016-10-14T12:00:28.298Z,11412
2016-10-14T12:01:38.615Z,11312
2016-10-14T12:02:48.587Z,10824
2016-10-14T12:03:58.587Z,10964
2016-10-14T12:05:08.886Z,10864
2016-10-14T12:06:18.887Z,10536
2016-10-14T12:07:28.580Z,10028
2016-10-14T12:08:38.880Z,10600
2016-10-14T12:09:49.170Z,10628
2016-10-14T12:10:59.147Z,8840
2016-10-14T12:12:09.446Z,9304
2016-10-14T12:13:19.424Z,9284
2016-10-14T12:14:29.721Z,9604
2016-10-14T12:15:40.025Z,9900
2016-10-14T12:16:50.370Z,9832
2016-10-14T12:18:00.699Z,9644
2016-10-14T12:19:11.013Z,9708
2016-10-14T12:20:21.012Z,10028
2016-10-14T12:21:31.322Z,10252
2016-10-14T12:22:41.314Z,10296
2016-10-14T12:23:51.297Z,10148
2016-10-14T12:25:01.607Z,10060
2016-10-14T12:26:11.919Z,10020
2016-10-14T12:27:22.214Z,9692
2016-10-14T12:28:32.196Z,10032
2016-10-14T12:29:42.500Z,9912
2016-10-14T12:30:52.195Z,10048
2016-10-14T12:32:02.498Z,9864
2016-10-14T12:33:12.801Z,9816
2016-10-14T12:34:23.100Z,9636
2016-10-14T12:35:33.079Z,9476
2016-10-14T12:36:43.384Z,8900
2016-10-14T12:37:53.681Z,8624
2016-10-14T12:39:03.699Z,8840
2016-10-14T12:40:13.995Z,8904
2016-10-14T12:41:24.320Z,8804
2016-10-14T12:42:34.011Z,8628
2016-10-14T12:43:44.324Z,8464
2016-10-14T12:44:54.323Z,8388
2016-10-14T12:46:04.654Z,8232
2016-10-14T12:47:14.963Z,8324
2016-10-14T12:48:24.956Z,8036
2016-10-14T12:49:35.268Z,7792
2016-10-14T12:50:45.269Z,7676
2016-10-14T12:51:55.252Z,7664
2016-10-14T12:53:05.556Z,7868
2016-10-14T12:54:15.542Z,7920
2016-10-14T12:55:25.835Z,7696
2016-10-14T12:56:36.152Z,7632
2016-10-14T12:57:46.159Z,7588
2016-10-14T12:58:56.132Z,7404
2016-10-14T13:00:06.434Z,7448
2016-10-14T13:01:16.423Z,7376
2016-10-14T13:02:26.722Z,7128
2016-10-14T13:03:37.043Z,6984
2016-10-14T13:04:46.716Z,7116
2016-10-14T13:05:56.717Z,7072
2016-10-14T13:07:07.023Z,6888
2016-10-14T13:08:17.347Z,7048
2016-10-14T13:09:27.026Z,6996
2016-10-14T13:10:36.394Z,6888
2016-10-14T13:11:46.685Z,6708
2016-10-14T13:12:56.386Z,6536
2016-10-14T13:14:06.063Z,6532
2016-10-14T13:15:16.099Z,6496
2016-10-14T13:16:26.090Z,6464
2016-10-14T13:17:35.484Z,6416
2016-10-14T13:18:45.475Z,6496
2016-10-14T13:19:55.486Z,6512
2016-10-14T13:21:05.703Z,6376
2016-10-14T13:22:16.006Z,5856
2016-10-14T13:23:25.379Z,6120
2016-10-14T13:24:35.681Z,6172
2016-10-14T13:25:45.383Z,6372
2016-10-14T13:26:55.373Z,6040
2016-10-14T13:28:05.070Z,6068
2016-10-14T13:29:15.061Z,6280
2016-10-14T13:30:25.102Z,6296
2016-10-14T13:31:35.110Z,6440
2016-10-14T13:32:44.802Z,6484
2016-10-14T13:33:54.798Z,6212
2016-10-14T13:35:05.109Z,6168
2016-10-14T13:36:15.103Z,5832
2016-10-14T13:37:25.114Z,5728
2016-10-14T13:38:35.431Z,5460
2016-10-14T13:39:45.421Z,5572
2016-10-14T13:40:55.474Z,4460
2016-10-14T13:42:05.481Z,4692
2016-10-14T13:43:15.790Z,3992
2016-10-14T13:44:25.788Z,4956
2016-10-14T13:45:35.475Z,3968
2016-10-14T13:46:45.782Z,4540
2016-10-14T13:47:55.775Z,4220
2016-10-14T13:49:06.010Z,3452
2016-10-14T13:50:16.321Z,3352
2016-10-14T13:51:26.638Z,3304
2016-10-14T13:52:36.688Z,3320
2016-10-14T13:53:46.706Z,3376
2016-10-14T13:54:56.689Z,3384
2016-10-14T13:56:07.013Z,3464
2016-10-14T13:57:17.316Z,3400
2016-10-14T13:58:27.637Z,3472
2016-10-14T13:59:37.645Z,4044
2016-10-14T14:00:47.338Z,4244
2016-10-14T14:01:57.342Z,3432
2016-10-14T14:03:07.025Z,4108
2016-10-14T14:04:17.041Z,3352
2016-10-14T14:05:27.340Z,3264
2016-10-14T14:06:37.653Z,3280
2016-10-14T14:07:47.953Z,4016
2016-10-14T14:08:58.269Z,3460
2016-10-14T14:10:07.962Z,3760
2016-10-14T14:11:17.959Z,3512
2016-10-14T14:12:28.254Z,4848
2016-10-14T14:13:38.252Z,4224
2016-10-14T14:14:48.254Z,4180
2016-10-14T14:15:58.563Z,4620
2016-10-14T14:17:08.871Z,4496
2016-10-14T14:18:19.179Z,4272
2016-10-14T14:19:29.171Z,4204
2016-10-14T14:20:38.861Z,3604
2016-10-14T14:21:48.849Z,3164
2016-10-14T14:22:58.857Z,2884
2016-10-14T14:24:08.852Z,2680
2016-10-14T14:25:19.173Z,2556
2016-10-14T14:26:29.178Z,2484
2016-10-14T14:27:39.174Z,2404
2016-10-14T14:28:49.190Z,2364
2016-10-14T14:29:59.487Z,2376
2016-10-14T14:31:09.793Z,2436
2016-10-14T14:32:20.101Z,2432
2016-10-14T14:33:30.416Z,2316
2016-10-14T14:34:40.737Z,2308
2016-10-14T14:35:51.042Z,2188
2016-10-14T14:37:01.353Z,2116
2016-10-14T14:38:11.663Z,2080
2016-10-14T14:39:21.982Z,2032
2016-10-14T14:40:32.276Z,2040
2016-10-14T14:41:42.279Z,1932
2016-10-14T14:42:52.279Z,2060
2016-10-14T14:44:02.255Z,1948
2016-10-14T14:45:12.553Z,1860
2016-10-14T14:46:22.829Z,1708
2016-10-14T14:47:32.811Z,1692
2016-10-14T14:48:42.811Z,1672
2016-10-14T14:49:53.108Z,1720
2016-10-14T14:51:03.424Z,1748
2016-10-14T14:52:13.121Z,1784
2016-10-14T14:53:23.417Z,1856
2016-10-14T14:54:33.732Z,1800
2016-10-14T14:55:43.716Z,1744
2016-10-14T14:56:53.398Z,1712
2016-10-14T14:58:03.379Z,1664
2016-10-14T14:59:13.372Z,1616
2016-10-14T15:00:23.667Z,1588
2016-10-14T15:01:33.353Z,1520
2016-10-14T15:02:43.337Z,1444
2016-10-14T15:03:53.319Z,1324
2016-10-14T15:05:03.313Z,1292
2016-10-14T15:06:13.001Z,1248
2016-10-14T15:07:22.984Z,1168
2016-10-14T15:08:33.294Z,1088
2016-10-14T15:09:43.587Z,1080
2016-10-14T15:10:53.893Z,1016
2016-10-14T15:12:04.184Z,968
2016-10-14T15:13:14.192Z,960
2016-10-14T15:14:24.208Z,896
2016-10-14T15:15:34.521Z,828
2016-10-14T15:16:44.873Z,764
2016-10-14T15:17:54.868Z,716
2016-10-14T15:19:05.253Z,700
2016-10-14T15:20:15.249Z,696
2016-10-14T15:21:25.563Z,688
2016-10-14T15:22:35.874Z,688
2016-10-14T15:23:46.187Z,700
2016-10-14T15:24:55.885Z,708
2016-10-14T15:26:06.204Z,704
2016-10-14T15:27:16.187Z,688
2016-10-14T15:28:25.878Z,704
2016-10-14T15:29:36.215Z,684
2016-10-14T15:30:46.213Z,648
2016-10-14T15:31:56.521Z,604
2016-10-14T15:33:06.836Z,572
2016-10-14T15:34:16.845Z,548
2016-10-14T15:35:26.864Z,524
2016-10-14T15:36:36.886Z,496
2016-10-14T15:37:46.572Z,456
2016-10-14T15:38:56.586Z,424
2016-10-14T15:40:06.574Z,408
2016-10-14T15:41:16.582Z,376
2016-10-14T15:42:26.914Z,352
2016-10-14T15:43:36.931Z,316
2016-10-14T15:44:47.236Z,304
2016-10-14T15:45:57.244Z,276
2016-10-14T15:47:07.545Z,264
2016-10-14T15:48:17.529Z,256
2016-10-14T15:49:27.531Z,244
2016-10-14T15:50:37.505Z,220
2016-10-14T15:51:47.851Z,188
2016-10-14T15:52:57.875Z,180
2016-10-14T15:54:08.203Z,164
2016-10-14T15:55:17.896Z,140
2016-10-14T15:56:28.193Z,120
2016-10-14T15:57:38.507Z,108
2016-10-14T15:58:48.827Z,100
2016-10-14T15:59:58.210Z,92
2016-10-14T16:01:08.195Z,84
2016-10-14T16:02:18.507Z,76
2016-10-14T16:03:28.499Z,68
2016-10-14T16:04:38.196Z,60
2016-10-14T16:05:48.505Z,52
2016-10-14T16:06:58.818Z,44
2016-10-14T16:08:09.111Z,36
2016-10-14T16:09:19.104Z,32
2016-10-14T16:10:29.424Z,28
2016-10-14T16:11:39.124Z,24
2016-10-14T16:12:49.432Z,20
2016-10-14T16:13:59.749Z,20
2016-10-14T16:15:10.070Z,16
2016-10-14T16:16:20.362Z,16
2016-10-14T16:17:30.364Z,12
2016-10-14T16:18:40.676Z,12
2016-10-14T16:19:50.967Z,4
2016-10-14T16:21:00.659Z,4
2016-10-14T16:22:10.964Z,8
2016-10-14T16:23:20.975Z,4
2016-10-14T16:24:31.294Z,4
2016-10-14T16:25:41.620Z,0
2016-10-14T16:26:51.628Z,0
2016-10-14T16:28:01.929Z,4
2016-10-14T16:29:11.919Z,4
2016-10-14T16:30:21.602Z,4
2016-10-14T16:31:31.908Z,0
2016-10-14T16:32:42.276Z,0
2016-10-14T16:33:52.573Z,0
2016-10-14T16:35:02.881Z,0
2016-10-14T16:36:12.864Z,0